createdAt,value
2023-03-26T00:02:09.238Z,100404.03
2023-03-26T00:04:38.604Z,100411.22
2023-03-26T00:07:06.910Z,100413.03
2023-03-26T00:09:35.602Z,100420.91
2023-03-26T00:12:04.440Z,100426.22
2023-03-26T00:14:33.630Z,100420.22
2023-03-26T00:17:02.550Z,100414.88
2023-03-26T00:19:31.300Z,100414.19
2023-03-26T00:21:59.725Z,100415.16
2023-03-26T00:24:29.925Z,100419.66
2023-03-26T00:27:00.232Z,100417.81
2023-03-26T00:29:29.333Z,100425.84
2023-03-26T00:31:58.041Z,100434.03
2023-03-26T00:34:27.115Z,100425.16
2023-03-26T00:36:56.070Z,100432.31
2023-03-26T00:39:26.174Z,100426.97
2023-03-26T00:41:54.975Z,100415.75
2023-03-26T00:44:23.877Z,100412.94
2023-03-26T00:46:52.784Z,100422.66
2023-03-26T00:49:21.538Z,100414.78
2023-03-26T00:51:49.925Z,100408.75
2023-03-26T00:54:18.796Z,100414.94
2023-03-26T00:56:47.451Z,100417.59
2023-03-26T00:59:17.462Z,100404.25
2023-03-26T01:01:45.964Z,100391.19
2023-03-26T01:04:34.957Z,100381.53
2023-03-26T01:07:17.312Z,100370.84
2023-03-26T01:09:50.575Z,100369.16
2023-03-26T01:12:24.388Z,100369.47
2023-03-26T01:14:56.788Z,100380.69
2023-03-26T01:17:25.147Z,100383.50
2023-03-26T01:20:20.541Z,100386.31
2023-03-26T01:22:52.436Z,100389.69
2023-03-26T01:25:21.350Z,100389.81
2023-03-26T01:27:54.539Z,100381.13
2023-03-26T01:30:34.505Z,100370.44
2023-03-26T01:33:07.821Z,100374.81
2023-03-26T01:36:40.747Z,100366.09
2023-03-26T01:39:31.401Z,100359.63
2023-03-26T01:42:08.499Z,100356.13
2023-03-26T01:44:45.279Z,100351.75
2023-03-26T01:47:14.386Z,100342.94
2023-03-26T01:49:42.959Z,100342.94
2023-03-26T01:52:19.776Z,100346.56
2023-03-26T01:54:48.168Z,100343.03
2023-03-26T01:57:47.693Z,100335.03
2023-03-26T02:00:34.011Z,100331.69
2023-03-26T02:03:18.536Z,100332.50
2023-03-26T02:05:56.864Z,100332.69
2023-03-26T02:08:36.046Z,100342.34
2023-03-26T02:11:11.737Z,100346.03
2023-03-26T02:13:45.655Z,100345.03
2023-03-26T02:16:16.784Z,100346.16
2023-03-26T02:18:47.590Z,100347.84
2023-03-26T02:21:21.806Z,100349.81
2023-03-26T02:23:57.960Z,100355.16
2023-03-26T02:26:26.721Z,100354.31
2023-03-26T02:29:06.666Z,100364.16
2023-03-26T02:31:38.035Z,100370.34
2023-03-26T02:34:07.024Z,100367.66
2023-03-26T02:36:38.870Z,100377.50
2023-03-26T02:39:14.678Z,100378.47
2023-03-26T02:41:50.283Z,100372.31
2023-03-26T02:44:19.251Z,100368.28
2023-03-26T02:47:10.930Z,100373.47
2023-03-26T02:49:42.344Z,100364.59
2023-03-26T02:52:17.389Z,100367.25
2023-03-26T02:54:47.173Z,100377.09
2023-03-26T02:57:19.322Z,100367.44
2023-03-26T02:59:50.648Z,100370.09
2023-03-26T03:02:38.696Z,100362.25
2023-03-26T03:05:48.717Z,100363.06
2023-03-26T03:08:28.536Z,100350.75
2023-03-26T03:11:18.784Z,100352.72
2023-03-26T03:13:48.683Z,100347.22
2023-03-26T03:16:21.484Z,100344.53
2023-03-26T03:18:54.890Z,100349.88
2023-03-26T03:21:27.657Z,100349.88
2023-03-26T03:23:56.422Z,100350.88
2023-03-26T03:26:30.688Z,100353.56
2023-03-26T03:29:04.497Z,100358.06
2023-03-26T03:31:33.319Z,100352.72
2023-03-26T03:34:06.065Z,100344.72
2023-03-26T03:36:38.822Z,100334.19
2023-03-26T03:39:26.848Z,100328.03
2023-03-26T03:41:56.108Z,100347.53
2023-03-26T03:44:24.641Z,100354.69
2023-03-26T03:46:55.813Z,100359.19
2023-03-26T03:49:24.236Z,100358.50
2023-03-26T03:51:53.261Z,100348.81
2023-03-26T03:54:29.355Z,100341.78
2023-03-26T03:57:19.137Z,100348.81
2023-03-26T03:59:59.179Z,100349.78
2023-03-26T04:02:35.263Z,100349.78
2023-03-26T04:05:07.536Z,100348.13
2023-03-26T04:07:38.763Z,100363.28
2023-03-26T04:10:09.555Z,100368.63
2023-03-26T04:12:58.245Z,100363.28
2023-03-26T04:15:52.842Z,100357.13
2023-03-26T04:18:22.528Z,100352.78
2023-03-26T04:20:51.247Z,100345.75
2023-03-26T04:23:29.275Z,100345.75
2023-03-26T04:26:20.038Z,100344.09
2023-03-26T04:29:13.042Z,100342.41
2023-03-26T04:31:43.552Z,100342.41
2023-03-26T04:34:24.603Z,100350.41
2023-03-26T04:37:32.497Z,100343.38
2023-03-26T04:40:14.301Z,100339.88
2023-03-26T04:43:02.684Z,100339.03
2023-03-26T04:45:50.100Z,100342.69
2023-03-26T04:48:20.653Z,100343.53
2023-03-26T04:50:50.064Z,100336.50
2023-03-26T04:53:21.611Z,100340.00
2023-03-26T04:56:07.704Z,100350.84
2023-03-26T04:59:02.643Z,100362.50
2023-03-26T05:01:38.002Z,100367.69
2023-03-26T05:04:08.115Z,100357.31
2023-03-26T05:06:38.277Z,100358.16
2023-03-26T05:09:15.925Z,100361.66
2023-03-26T05:12:03.759Z,100358.16
2023-03-26T05:14:42.068Z,100366.00
2023-03-26T05:17:19.083Z,100360.97
2023-03-26T05:19:49.079Z,100353.81
2023-03-26T05:22:19.665Z,100355.66
2023-03-26T05:25:14.345Z,100347.78
2023-03-26T05:27:44.590Z,100347.66
2023-03-26T05:30:19.654Z,100343.28
2023-03-26T05:32:52.308Z,100340.63
2023-03-26T05:35:26.525Z,100335.59
2023-03-26T05:37:56.313Z,100345.13
2023-03-26T05:40:26.627Z,100348.63
2023-03-26T05:43:04.620Z,100342.44
2023-03-26T05:45:40.132Z,100337.13
2023-03-26T05:48:21.301Z,100341.31
2023-03-26T05:50:52.140Z,100328.97
2023-03-26T05:53:21.919Z,100336.13
2023-03-26T05:56:09.641Z,100333.31
2023-03-26T05:58:57.917Z,100343.28
2023-03-26T06:01:44.979Z,100349.47
2023-03-26T06:04:17.716Z,100340.63
2023-03-26T06:07:04.231Z,100348.63
2023-03-26T06:09:33.386Z,100351.97
2023-03-26T06:12:02.045Z,100350.31
2023-03-26T06:14:33.739Z,100352.97
2023-03-26T06:17:24.822Z,100350.31
2023-03-26T06:20:14.186Z,100350.69
2023-03-26T06:22:45.937Z,100355.03
2023-03-26T06:25:23.279Z,100356.19
2023-03-26T06:28:11.125Z,100354.50
2023-03-26T06:31:00.704Z,100343.97
2023-03-26T06:33:36.859Z,100347.31
2023-03-26T06:36:06.586Z,100340.88
2023-03-26T06:38:35.646Z,100334.69
2023-03-26T06:41:07.819Z,100319.69
2023-03-26T06:43:57.519Z,100324.00
2023-03-26T06:46:55.719Z,100328.50
2023-03-26T06:49:45.404Z,100332.88
2023-03-26T06:52:40.529Z,100336.22
2023-03-26T06:55:28.188Z,100332.00
2023-03-26T06:58:17.167Z,100325.56
2023-03-26T07:00:58.055Z,100325.69
2023-03-26T07:03:45.435Z,100324.69
2023-03-26T07:06:33.139Z,100325.56
2023-03-26T07:09:20.501Z,100323.72
2023-03-26T07:12:08.203Z,100316.41
2023-03-26T07:15:09.694Z,100310.09
2023-03-26T07:17:57.237Z,100302.09
2023-03-26T07:20:31.020Z,100295.75
2023-03-26T07:23:00.122Z,100294.59
2023-03-26T07:25:59.283Z,100296.44
2023-03-26T07:29:03.820Z,100294.78
2023-03-26T07:32:32.025Z,100290.28
2023-03-26T07:35:32.855Z,100288.28
2023-03-26T07:38:41.410Z,100276.94
2023-03-26T07:41:41.456Z,100260.78
2023-03-26T07:44:42.041Z,100256.75
2023-03-26T07:47:27.857Z,100251.91
2023-03-26T07:50:22.936Z,100247.13
2023-03-26T07:53:24.476Z,100237.13
2023-03-26T07:56:35.075Z,100239.19
2023-03-26T07:59:21.816Z,100235.00
2023-03-26T08:03:10.069Z,100219.53
2023-03-26T08:06:17.811Z,100215.16
2023-03-26T08:09:35.226Z,100209.69
2023-03-26T08:12:24.695Z,100211.81
2023-03-26T08:15:13.474Z,100202.16
2023-03-26T08:18:00.763Z,100197.88
2023-03-26T08:20:48.161Z,100204.19
2023-03-26T08:23:52.216Z,100197.19
2023-03-26T08:26:57.633Z,100201.53
2023-03-26T08:30:10.510Z,100207.53
2023-03-26T08:32:40.037Z,100208.56
2023-03-26T08:35:13.828Z,100201.53
2023-03-26T08:37:45.515Z,100201.00
2023-03-26T08:40:14.534Z,100194.00
2023-03-26T08:43:15.724Z,100185.47
2023-03-26T08:46:15.585Z,100179.66
2023-03-26T08:49:29.131Z,100165.31
2023-03-26T08:52:37.665Z,100171.19
2023-03-26T08:55:38.462Z,100165.22
2023-03-26T08:58:55.949Z,100166.38
2023-03-26T09:01:43.537Z,100146.69
2023-03-26T09:05:17.208Z,100129.25
2023-03-26T09:07:52.030Z,100132.19
2023-03-26T09:10:52.938Z,100119.41
2023-03-26T09:13:53.597Z,100114.59
2023-03-26T09:16:56.197Z,100111.72
2023-03-26T09:19:55.106Z,100105.16
2023-03-26T09:22:43.272Z,100108.50
2023-03-26T09:25:44.845Z,100106.28
2023-03-26T09:29:06.612Z,100092.50
2023-03-26T09:31:58.377Z,100096.69
2023-03-26T09:35:28.410Z,100107.09
2023-03-26T09:38:17.861Z,100107.91
2023-03-26T09:41:18.530Z,100114.69
2023-03-26T09:44:19.504Z,100112.50
2023-03-26T09:47:22.246Z,100103.47
2023-03-26T09:50:17.348Z,100094.25
2023-03-26T09:52:52.518Z,100098.78
2023-03-26T09:55:28.877Z,100091.44
2023-03-26T09:58:29.879Z,100090.63
2023-03-26T10:01:38.037Z,100090.47
2023-03-26T10:04:55.958Z,100094.06
2023-03-26T10:08:07.153Z,100087.56
2023-03-26T10:11:04.234Z,100106.66
2023-03-26T10:14:04.701Z,100095.22
2023-03-26T10:16:48.210Z,100088.91
2023-03-26T10:19:41.276Z,100079.28
2023-03-26T10:22:41.620Z,100077.72
2023-03-26T10:25:47.282Z,100067.25
2023-03-26T10:28:24.440Z,100064.66
2023-03-26T10:31:14.673Z,100068.00
2023-03-26T10:34:28.126Z,100054.00
2023-03-26T10:37:17.899Z,100057.34
2023-03-26T10:39:49.695Z,100055.44
2023-03-26T10:42:43.399Z,100050.41
2023-03-26T10:45:27.381Z,100053.22
2023-03-26T10:48:29.115Z,100047.16
2023-03-26T10:51:15.743Z,100040.38
2023-03-26T10:53:54.831Z,100030.78
2023-03-26T10:56:28.292Z,100021.13
2023-03-26T10:58:57.428Z,100033.69
2023-03-26T11:01:53.484Z,100033.91
2023-03-26T11:04:54.684Z,100024.72
2023-03-26T11:08:08.397Z,100018.91
2023-03-26T11:10:57.365Z,100021.75
2023-03-26T11:13:59.248Z,100026.56
2023-03-26T11:16:49.106Z,100021.44
2023-03-26T11:20:05.955Z,100027.44
2023-03-26T11:23:03.235Z,100023.41
2023-03-26T11:25:58.005Z,100013.09
2023-03-26T11:29:03.228Z,100006.44
2023-03-26T11:31:55.598Z,100011.44
2023-03-26T11:34:44.758Z,99982.22
2023-03-26T11:37:19.473Z,99978.72
2023-03-26T11:39:55.987Z,99972.78
2023-03-26T11:42:25.757Z,99980.06
2023-03-26T11:45:14.431Z,99982.63
2023-03-26T11:47:52.847Z,99983.16
2023-03-26T11:50:28.692Z,99982.66
2023-03-26T11:53:18.059Z,99979.97
2023-03-26T11:56:34.167Z,99983.44
2023-03-26T11:59:18.828Z,99968.31
2023-03-26T12:01:58.698Z,99958.88
2023-03-26T12:04:40.893Z,99952.41
2023-03-26T12:07:21.457Z,99936.28
2023-03-26T12:09:56.912Z,99930.94
2023-03-26T12:12:45.947Z,99914.22
2023-03-26T12:15:19.353Z,99898.22
2023-03-26T12:17:57.163Z,99899.59
2023-03-26T12:20:25.879Z,99895.03
2023-03-26T12:22:59.647Z,99892.16
2023-03-26T12:25:37.323Z,99890.34
2023-03-26T12:28:18.820Z,99891.69
2023-03-26T12:31:18.503Z,99895.97
2023-03-26T12:34:18.094Z,99885.44
2023-03-26T12:36:57.100Z,99874.47
2023-03-26T12:40:07.450Z,99873.59
2023-03-26T12:44:48.981Z,99866.91
2023-03-26T12:46:44.307Z,99860.25
2023-03-26T12:48:42.199Z,99859.25
2023-03-26T12:51:27.089Z,99850.75
2023-03-26T12:53:55.729Z,99845.25
2023-03-26T12:56:43.718Z,99844.53
2023-03-26T12:59:39.925Z,99832.22
2023-03-26T13:03:01.293Z,99821.88
2023-03-26T13:05:37.155Z,99814.88
2023-03-26T13:08:43.748Z,99810.88
2023-03-26T13:11:36.647Z,99800.34
2023-03-26T13:14:18.471Z,99797.19
2023-03-26T13:17:10.129Z,99802.00
2023-03-26T13:20:12.332Z,99798.66
2023-03-26T13:22:59.799Z,99795.50
2023-03-26T13:25:40.914Z,99780.13
2023-03-26T13:28:25.132Z,99772.78
2023-03-26T13:31:18.705Z,99778.13
2023-03-26T13:34:18.878Z,99763.81
2023-03-26T13:36:54.113Z,99756.31
2023-03-26T13:40:15.956Z,99755.47
2023-03-26T13:43:04.546Z,99748.78
2023-03-26T13:45:57.785Z,99751.81
2023-03-26T13:48:32.972Z,99739.28
2023-03-26T13:51:35.946Z,99728.41
2023-03-26T13:54:32.757Z,99715.75
2023-03-26T13:57:33.476Z,99709.28
2023-03-26T14:00:23.994Z,99690.78
2023-03-26T14:03:04.364Z,99678.78
2023-03-26T14:05:42.791Z,99681.09
2023-03-26T14:08:35.518Z,99677.44
2023-03-26T14:11:21.586Z,99665.63
2023-03-26T14:13:56.933Z,99656.44
2023-03-26T14:16:35.222Z,99652.44
2023-03-26T14:20:05.556Z,99642.28
2023-03-26T14:23:16.562Z,99633.31
2023-03-26T14:26:06.193Z,99635.97
2023-03-26T14:29:10.248Z,99625.78
2023-03-26T14:32:02.320Z,99616.00
2023-03-26T14:34:55.386Z,99611.13
2023-03-26T14:37:59.987Z,99599.78
2023-03-26T14:40:46.647Z,99610.31
2023-03-26T14:43:51.824Z,99601.47
2023-03-26T14:47:03.009Z,99601.41
2023-03-26T14:50:21.727Z,99608.72
2023-03-26T14:53:01.257Z,99607.06
2023-03-26T14:55:49.523Z,99590.72
2023-03-26T14:58:55.980Z,99583.41
2023-03-26T15:01:28.621Z,99579.41
2023-03-26T15:04:21.367Z,99573.09
2023-03-26T15:07:08.616Z,99568.16
2023-03-26T15:09:52.747Z,99571.16
2023-03-26T15:13:10.616Z,99570.47
2023-03-26T15:16:17.724Z,99552.50
2023-03-26T15:19:17.994Z,99558.00
2023-03-26T15:22:13.562Z,99554.16
2023-03-26T15:24:57.289Z,99555.50
2023-03-26T15:28:02.233Z,99544.19
2023-03-26T15:31:18.882Z,99536.84
2023-03-26T15:34:43.559Z,99539.50
2023-03-26T15:37:42.417Z,99543.84
2023-03-26T15:40:32.241Z,99540.69
2023-03-26T15:43:08.941Z,99537.19
2023-03-26T15:46:11.010Z,99537.88
2023-03-26T15:49:06.597Z,99541.19
2023-03-26T15:52:24.379Z,99552.69
2023-03-26T15:55:26.566Z,99561.50
2023-03-26T15:57:57.165Z,99557.84
2023-03-26T16:00:29.311Z,99558.69
2023-03-26T16:03:12.993Z,99557.69
2023-03-26T16:06:19.054Z,99567.50
2023-03-26T16:09:19.021Z,99576.16
2023-03-26T16:11:59.024Z,99539.84
2023-03-26T16:14:45.365Z,99547.19
2023-03-26T16:17:18.620Z,99561.19
2023-03-26T16:20:10.137Z,99557.84
2023-03-26T16:23:01.823Z,99561.19
2023-03-26T16:25:33.397Z,99573.50
2023-03-26T16:28:20.126Z,99574.50
2023-03-26T16:31:10.644Z,99574.34
2023-03-26T16:34:08.126Z,99559.19
2023-03-26T16:36:44.822Z,99548.50
2023-03-26T16:39:18.961Z,99569.50
2023-03-26T16:42:06.338Z,99573.19
2023-03-26T16:45:03.982Z,99578.50
2023-03-26T16:47:47.813Z,99574.34
2023-03-26T16:50:42.685Z,99565.84
2023-03-26T16:53:47.402Z,99566.34
2023-03-26T16:56:26.336Z,99575.19
2023-03-26T16:58:58.888Z,99563.53
2023-03-26T17:01:45.578Z,99553.69
2023-03-26T17:04:25.894Z,99491.69
2023-03-26T17:07:02.054Z,99480.00
2023-03-26T17:10:31.990Z,99501.19
2023-03-26T17:13:25.220Z,99504.50
2023-03-26T17:16:20.015Z,99493.50
2023-03-26T17:19:47.049Z,99486.84
2023-03-26T17:22:51.740Z,99478.84
2023-03-26T17:25:54.631Z,99460.00
2023-03-26T17:28:58.098Z,99439.50
2023-03-26T17:31:44.694Z,99428.16
2023-03-26T17:34:38.315Z,99438.66
2023-03-26T17:37:24.202Z,99448.84
2023-03-26T17:40:01.787Z,99444.66
2023-03-26T17:42:36.187Z,99428.19
2023-03-26T17:45:22.455Z,99416.50
2023-03-26T17:48:19.701Z,99407.03
2023-03-26T17:50:58.374Z,99406.19
2023-03-26T17:53:34.822Z,99416.00
2023-03-26T17:56:14.402Z,99420.53
2023-03-26T17:58:48.149Z,99422.53
2023-03-26T18:01:32.834Z,99435.69
2023-03-26T18:04:04.346Z,99435.84
2023-03-26T18:07:29.118Z,99451.03
2023-03-26T18:10:33.416Z,99453.84
2023-03-26T18:13:08.928Z,99465.50
2023-03-26T18:15:58.076Z,99467.34
2023-03-26T18:18:42.474Z,99471.53
2023-03-26T18:21:11.098Z,99480.00
2023-03-26T18:23:49.181Z,99467.53
2023-03-26T18:26:32.276Z,99436.34
2023-03-26T18:29:32.633Z,99413.34
2023-03-26T18:32:14.253Z,99397.19
2023-03-26T18:34:58.483Z,99410.34
2023-03-26T18:37:39.141Z,99407.53
2023-03-26T18:40:16.918Z,99391.31
2023-03-26T18:43:01.800Z,99395.50
2023-03-26T18:45:38.375Z,99411.50
2023-03-26T18:48:18.031Z,99409.50
2023-03-26T18:50:55.458Z,99402.84
2023-03-26T18:53:26.384Z,99415.84
2023-03-26T18:55:55.790Z,99428.69
2023-03-26T18:58:38.462Z,99423.72
2023-03-26T19:01:19.990Z,99438.03
2023-03-26T19:03:54.297Z,99438.19
2023-03-26T19:06:23.710Z,99437.53
2023-03-26T19:08:53.072Z,99438.19
2023-03-26T19:11:22.132Z,99438.53
2023-03-26T19:13:59.928Z,99442.53
2023-03-26T19:16:34.039Z,99456.84
2023-03-26T19:19:05.871Z,99469.69
2023-03-26T19:21:35.441Z,99475.69
2023-03-26T19:24:04.772Z,99492.50
2023-03-26T19:26:33.669Z,99505.53
2023-03-26T19:29:02.306Z,99504.66
2023-03-26T19:31:37.114Z,99494.19
2023-03-26T19:34:38.983Z,99488.88
2023-03-26T19:37:25.480Z,99487.53
2023-03-26T19:40:14.558Z,99487.84
2023-03-26T19:45:32.312Z,99487.84
2023-03-26T19:48:14.214Z,99482.84
2023-03-26T19:51:00.547Z,99479.19
2023-03-26T19:51:18.206Z,99490.69
2023-03-26T19:53:35.556Z,99470.53
2023-03-26T19:56:10.930Z,99462.69
2023-03-26T19:58:41.482Z,99461.88
2023-03-26T20:01:30.033Z,99471.72
2023-03-26T20:04:02.416Z,99469.22
2023-03-26T20:09:21.576Z,99471.22
2023-03-26T20:11:52.758Z,99457.03
2023-03-26T20:14:26.252Z,99447.22
2023-03-26T20:16:55.394Z,99440.22
2023-03-26T20:19:25.468Z,99439.56
2023-03-26T20:21:54.911Z,99435.91
2023-03-26T20:24:25.240Z,99441.56
2023-03-26T20:26:54.017Z,99446.72
2023-03-26T20:29:23.727Z,99431.72
2023-03-26T20:31:52.430Z,99428.22
2023-03-26T20:34:23.794Z,99442.38
2023-03-26T20:36:55.589Z,99446.72
2023-03-26T20:39:25.131Z,99454.06
2023-03-26T20:41:54.389Z,99451.41
2023-03-26T20:44:23.389Z,99452.22
2023-03-26T20:46:52.620Z,99450.56
2023-03-26T20:49:22.388Z,99454.88
2023-03-26T20:51:51.169Z,99441.56
2023-03-26T20:54:24.166Z,99439.06
2023-03-26T20:56:53.787Z,99437.56
2023-03-26T20:59:27.870Z,99433.06
2023-03-26T21:01:57.946Z,99431.22
2023-03-26T21:04:27.755Z,99434.91
2023-03-26T21:07:07.074Z,99434.91
2023-03-26T21:09:45.030Z,99446.38
2023-03-26T21:12:27.676Z,99443.06
2023-03-26T21:14:57.276Z,99434.06
2023-03-26T21:17:26.363Z,99435.88
2023-03-26T21:19:55.604Z,99437.72
2023-03-26T21:23:04.382Z,99419.22
2023-03-26T21:25:46.981Z,99408.41
2023-03-26T21:28:39.737Z,99395.25
2023-03-26T21:31:19.779Z,99392.59
2023-03-26T21:33:49.584Z,99385.44
2023-03-26T21:36:20.054Z,99393.44
2023-03-26T21:38:50.983Z,99382.94
2023-03-26T21:41:36.101Z,99375.09
2023-03-26T21:44:04.696Z,99375.09
2023-03-26T21:46:34.033Z,99368.94
2023-03-26T21:49:02.953Z,99363.63
2023-03-26T21:51:32.299Z,99341.28
2023-03-26T21:54:01.263Z,99339.63
2023-03-26T21:56:50.732Z,99341.47
2023-03-26T21:59:46.455Z,99337.97
2023-03-26T22:02:45.346Z,99330.63
2023-03-26T22:05:43.968Z,99335.13
2023-03-26T22:08:31.349Z,99327.28
2023-03-26T22:10:59.842Z,99315.81
2023-03-26T22:13:28.891Z,99310.47
2023-03-26T22:15:57.659Z,99309.66
2023-03-26T22:18:30.392Z,99297.31
2023-03-26T22:21:00.171Z,99297.31
2023-03-26T22:23:34.463Z,99291.34
2023-03-26T22:26:04.428Z,99299.00
2023-03-26T22:28:33.210Z,99293.84
2023-03-26T22:31:08.992Z,99298.34
2023-03-26T22:33:40.351Z,99295.69
2023-03-26T22:36:22.147Z,99292.53
2023-03-26T22:38:54.192Z,99293.19
2023-03-26T22:41:23.174Z,99280.69
2023-03-26T22:43:54.852Z,99281.69
2023-03-26T22:46:23.916Z,99290.50
2023-03-26T22:48:52.751Z,99281.03
2023-03-26T22:51:21.094Z,99281.69
2023-03-26T22:53:49.958Z,99279.03
2023-03-26T22:56:19.054Z,99271.19
2023-03-26T22:58:48.300Z,99274.69
2023-03-26T23:01:23.106Z,99279.53
2023-03-26T23:03:52.198Z,99274.03
2023-03-26T23:06:21.821Z,99275.06
2023-03-26T23:08:51.762Z,99276.69
2023-03-26T23:11:22.190Z,99276.03
2023-03-26T23:13:51.410Z,99275.06
2023-03-26T23:16:21.793Z,99265.50
2023-03-26T23:18:50.818Z,99273.38
2023-03-26T23:21:22.163Z,99261.00
2023-03-26T23:23:52.406Z,99260.34
2023-03-26T23:26:21.723Z,99257.69
2023-03-26T23:28:54.180Z,99263.88
2023-03-26T23:31:25.535Z,99263.88
2023-03-26T23:33:54.492Z,99257.03
2023-03-26T23:36:24.006Z,99257.69
2023-03-26T23:38:54.050Z,99246.38
2023-03-26T23:41:23.421Z,99249.22
2023-03-26T23:43:55.849Z,99262.34
2023-03-26T23:46:30.633Z,99256.38
2023-03-26T23:49:02.665Z,99255.53
2023-03-26T23:51:31.448Z,99253.69
2023-03-26T23:54:00.688Z,99253.69
2023-03-26T23:56:32.626Z,99263.38
2023-03-26T23:59:01.448Z,99264.34
